Time;durP1;ratioP1;P1;durP2;ratioP2;P2;SDS_P1;SDS_P2;PMS_P1;PMS_P2;Temp;Humidity;BMP_temperature;BMP_pressure;BME280_temperature;BME280_humidity;BME280_pressure;Samples;Min_cycle;Max_cycle;Signal;HPM_P1;HPM_P2
2024/04/15 00:09:39;;;;;;;8.45;3.38;;;;;;;;;;22323938;26;20439;-45
2024/04/15 00:19:40;;;;;;;6.85;2.60;;;;;;;;;;22348142;26;20015;-45
2024/04/15 00:29:42;;;;;;;8.32;2.55;;;;;;;;;;22341853;26;20212;-44
2024/04/15 00:39:43;;;;;;;11.27;3.08;;;;;;;;;;22330557;26;20004;-44
2024/04/15 00:49:45;;;;;;;7.03;2.67;;;;;;;;;;22327882;26;20000;-43
2024/04/15 00:59:49;;;;;;;8.73;2.97;;;;;;;;;;22343514;26;20347;-46
2024/04/15 01:09:50;;;;;;;7.23;2.90;;;;;;;;;;22350696;26;20700;-43
2024/04/15 01:19:59;;;;;;;8.68;2.92;;;;;;;;;;22358146;26;20011;-43
2024/04/15 01:30:01;;;;;;;9.55;3.00;;;;;;;;;;22343287;26;20022;-43
2024/04/15 01:40:04;;;;;;;12.55;2.72;;;;;;;;;;22336514;26;19999;-43
2024/04/15 01:50:08;;;;;;;11.87;3.20;;;;;;;;;;22347856;26;20019;-44
2024/04/15 02:00:09;;;;;;;9.18;3.17;;;;;;;;;;22366034;26;20020;-45
2024/04/15 02:10:11;;;;;;;6.00;2.13;;;;;;;;;;22363784;26;20039;-44
2024/04/15 02:20:13;;;;;;;6.45;2.28;;;;;;;;;;22328925;26;20004;-44
2024/04/15 02:30:15;;;;;;;5.95;2.30;;;;;;;;;;22349346;26;20093;-44
2024/04/15 02:40:16;;;;;;;9.45;2.22;;;;;;;;;;22345229;26;20003;-44
2024/04/15 02:50:18;;;;;;;11.27;3.03;;;;;;;;;;22355576;26;20018;-43
2024/04/15 03:00:19;;;;;;;8.13;2.30;;;;;;;;;;22328911;26;20016;-43
2024/04/15 03:10:21;;;;;;;9.05;2.38;;;;;;;;;;22357241;26;20004;-43
2024/04/15 03:20:26;;;;;;;4.13;2.28;;;;;;;;;;22362542;26;20003;-43
2024/04/15 03:30:27;;;;;;;6.68;2.70;;;;;;;;;;22355837;26;20081;-43
2024/04/15 03:40:29;;;;;;;5.53;2.08;;;;;;;;;;22365350;26;20007;-43
2024/04/15 03:50:30;;;;;;;6.05;2.67;;;;;;;;;;22351226;26;20402;-45
2024/04/15 04:00:32;;;;;;;9.10;2.60;;;;;;;;;;22357074;26;20580;-45
2024/04/15 04:10:33;;;;;;;9.45;2.45;;;;;;;;;;22332233;26;19999;-44
2024/04/15 04:20:35;;;;;;;8.38;2.42;;;;;;;;;;22351933;26;20439;-43
2024/04/15 04:30:37;;;;;;;7.95;3.05;;;;;;;;;;22364109;26;19996;-43
2024/04/15 04:40:39;;;;;;;8.52;2.90;;;;;;;;;;22373052;26;20003;-45
2024/04/15 04:50:40;;;;;;;8.40;2.72;;;;;;;;;;22359410;26;20078;-45
2024/04/15 05:00:42;;;;;;;8.13;3.75;;;;;;;;;;22369111;26;20015;-44
2024/04/15 05:10:43;;;;;;;8.43;2.50;;;;;;;;;;22359081;26;20395;-44
2024/04/15 05:20:45;;;;;;;7.55;2.75;;;;;;;;;;22333469;26;20444;-44
2024/04/15 05:30:53;;;;;;;12.93;3.53;;;;;;;;;;22322634;26;20004;-44
2024/04/15 05:40:54;;;;;;;7.55;2.65;;;;;;;;;;22373842;26;20095;-45
2024/04/15 05:50:57;;;;;;;12.52;2.88;;;;;;;;;;22404583;26;20446;-44
2024/04/15 06:00:59;;;;;;;8.88;2.90;;;;;;;;;;22410179;26;20004;-45
2024/04/15 06:11:00;;;;;;;10.27;3.60;;;;;;;;;;22407790;26;20004;-44
2024/04/15 06:21:02;;;;;;;10.88;3.40;;;;;;;;;;22408428;26;20697;-43
2024/04/15 06:31:05;;;;;;;8.75;3.60;;;;;;;;;;22398753;26;20129;-44
2024/04/15 06:41:06;;;;;;;9.30;3.47;;;;;;;;;;22363997;26;20004;-43
2024/04/15 06:51:08;;;;;;;12.40;3.20;;;;;;;;;;22359707;26;20360;-44
2024/04/15 07:01:10;;;;;;;13.48;3.97;;;;;;;;;;22387961;26;20012;-44
2024/04/15 07:11:13;;;;;;;12.63;4.10;;;;;;;;;;22392297;26;20050;-42
2024/04/15 07:21:16;;;;;;;12.95;3.67;;;;;;;;;;22388451;26;20003;-44
2024/04/15 07:31:17;;;;;;;14.27;5.10;;;;;;;;;;22354861;26;20327;-44
2024/04/15 07:41:19;;;;;;;18.77;5.90;;;;;;;;;;22333018;26;20415;-45
2024/04/15 07:51:21;;;;;;;17.13;6.60;;;;;;;;;;22378889;26;20430;-44
2024/04/15 08:01:23;;;;;;;14.32;6.20;;;;;;;;;;22399619;26;20014;-44
2024/04/15 08:11:24;;;;;;;22.00;7.93;;;;;;;;;;22395958;26;20004;-43
2024/04/15 08:21:26;;;;;;;19.23;6.97;;;;;;;;;;22398494;26;20008;-51
2024/04/15 08:31:29;;;;;;;19.35;7.78;;;;;;;;;;22382617;26;20008;-50
2024/04/15 08:41:36;;;;;;;25.77;8.98;;;;;;;;;;22370614;26;20004;-49
2024/04/15 08:51:37;;;;;;;26.38;9.13;;;;;;;;;;22381997;26;20042;-48
2024/04/15 09:01:39;;;;;;;30.90;8.38;;;;;;;;;;22395976;26;20550;-50
2024/04/15 09:11:42;;;;;;;23.65;7.50;;;;;;;;;;22390031;26;20010;-50
2024/04/15 09:21:45;;;;;;;24.90;6.67;;;;;;;;;;22403286;26;20051;-50
2024/04/15 09:31:48;;;;;;;24.73;7.00;;;;;;;;;;22378736;26;20442;-49
2024/04/15 09:41:50;;;;;;;20.92;6.05;;;;;;;;;;22312510;26;20040;-49
2024/04/15 09:51:52;;;;;;;28.35;7.45;;;;;;;;;;22379788;26;20077;-49
2024/04/15 10:01:55;;;;;;;22.83;7.57;;;;;;;;;;22393649;26;20440;-49
2024/04/15 10:12:34;;;;;;;25.80;6.80;;;;;;;;;;22405599;26;20067;-49
2024/04/15 10:22:39;;;;;;;25.27;5.40;;;;;;;;;;22338787;26;20005;-50
2024/04/15 10:32:45;;;;;;;23.17;5.35;;;;;;;;;;22371063;26;20008;-49
2024/04/15 10:42:46;;;;;;;17.73;4.22;;;;;;;;;;22362289;26;20018;-49
2024/04/15 10:52:51;;;;;;;12.50;2.92;;;;;;;;;;22393501;26;20072;-48
2024/04/15 11:02:54;;;;;;;13.20;3.05;;;;;;;;;;22381531;26;20008;-49
2024/04/15 11:12:56;;;;;;;13.13;3.42;;;;;;;;;;22403721;26;20003;-48
2024/04/15 11:22:59;;;;;;;17.00;4.60;;;;;;;;;;22401982;26;20004;-48
2024/04/15 11:33:02;;;;;;;14.73;2.95;;;;;;;;;;22357436;26;20015;-49
2024/04/15 11:43:04;;;;;;;17.77;3.67;;;;;;;;;;22355687;26;20000;-48
2024/04/15 11:53:07;;;;;;;12.35;3.55;;;;;;;;;;22389262;26;20505;-49
2024/04/15 12:03:09;;;;;;;9.90;3.27;;;;;;;;;;22381212;26;20023;-49
2024/04/15 12:13:11;;;;;;;15.02;4.68;;;;;;;;;;22394400;26;20225;-49
2024/04/15 12:23:14;;;;;;;6.32;3.30;;;;;;;;;;22398090;26;20019;-49
2024/04/15 12:33:15;;;;;;;9.27;2.83;;;;;;;;;;22360108;26;20047;-49
2024/04/15 12:43:16;;;;;;;8.68;3.60;;;;;;;;;;22397520;26;20109;-48
2024/04/15 12:53:18;;;;;;;5.80;3.08;;;;;;;;;;22396750;26;20003;-52
2024/04/15 13:03:21;;;;;;;7.53;2.78;;;;;;;;;;22385888;26;20597;-48
2024/04/15 13:13:23;;;;;;;6.93;2.90;;;;;;;;;;22404896;26;20000;-55
2024/04/15 13:23:26;;;;;;;7.57;3.20;;;;;;;;;;22409447;26;20346;-54
2024/04/15 13:33:28;;;;;;;5.80;2.45;;;;;;;;;;22391818;26;20045;-49
2024/04/15 13:43:30;;;;;;;8.60;3.00;;;;;;;;;;22410265;26;20451;-50
2024/04/15 13:53:33;;;;;;;10.13;2.70;;;;;;;;;;22370293;26;20048;-51
2024/04/15 14:03:34;;;;;;;11.38;3.95;;;;;;;;;;22386546;26;20007;-54
2024/04/15 14:13:36;;;;;;;7.05;1.70;;;;;;;;;;22409701;26;20018;-50
2024/04/15 14:23:37;;;;;;;3.42;1.60;;;;;;;;;;22410331;26;20022;-51
2024/04/15 14:33:39;;;;;;;8.38;1.90;;;;;;;;;;22397265;26;20016;-50
2024/04/15 14:43:41;;;;;;;4.20;2.15;;;;;;;;;;22275288;26;20416;-51
2024/04/15 14:53:46;;;;;;;7.10;1.83;;;;;;;;;;22397396;26;20013;-54
2024/04/15 15:03:48;;;;;;;5.43;1.90;;;;;;;;;;22407832;26;20007;-52
2024/04/15 15:13:50;;;;;;;8.05;2.00;;;;;;;;;;22406418;26;20350;-53
2024/04/15 15:23:52;;;;;;;5.10;1.88;;;;;;;;;;22395746;26;20016;-53
2024/04/15 15:33:53;;;;;;;6.18;1.73;;;;;;;;;;22331885;26;20004;-50
2024/04/15 15:43:56;;;;;;;5.00;2.00;;;;;;;;;;22366095;26;20000;-51
2024/04/15 15:53:58;;;;;;;3.92;1.35;;;;;;;;;;22403085;26;20004;-51
2024/04/15 16:04:00;;;;;;;3.80;1.80;;;;;;;;;;22399205;26;20007;-51
2024/04/15 16:14:03;;;;;;;4.68;1.38;;;;;;;;;;22398422;26;20032;-54
2024/04/15 16:24:05;;;;;;;4.10;1.73;;;;;;;;;;22396214;26;20636;-53
2024/04/15 16:34:07;;;;;;;4.70;2.08;;;;;;;;;;22389950;26;20027;-54
2024/04/15 16:44:08;;;;;;;4.65;1.80;;;;;;;;;;22343475;26;20003;-50
2024/04/15 16:54:10;;;;;;;7.53;1.85;;;;;;;;;;22413955;26;20380;-51
2024/04/15 17:04:11;;;;;;;9.35;2.05;;;;;;;;;;22413238;26;20000;-54
2024/04/15 17:14:31;;;;;;;6.63;1.80;;;;;;;;;;22413680;26;20018;-51
2024/04/15 17:24:34;;;;;;;15.00;4.30;;;;;;;;;;22402236;26;20734;-51
2024/04/15 17:34:36;;;;;;;34.42;6.93;;;;;;;;;;22371510;26;20000;-52
2024/04/15 17:44:38;;;;;;;34.80;6.57;;;;;;;;;;22355968;26;20018;-52
2024/04/15 17:54:41;;;;;;;;;;;;;;;;;;22342493;26;20044;-51
2024/04/15 18:04:43;;;;;;;40.20;9.73;;;;;;;;;;22346636;26;19926;-52
2024/04/15 18:14:45;;;;;;;47.60;11.18;;;;;;;;;;22343915;26;20351;-50
2024/04/15 18:24:47;;;;;;;55.38;12.07;;;;;;;;;;22353653;26;20307;-51
2024/04/15 18:34:49;;;;;;;49.80;10.98;;;;;;;;;;22359340;26;20011;-51
2024/04/15 18:44:51;;;;;;;50.33;10.30;;;;;;;;;;22373612;26;20031;-50
2024/04/15 18:54:53;;;;;;;47.90;8.97;;;;;;;;;;22353949;26;20513;-50
2024/04/15 19:04:55;;;;;;;46.38;10.23;;;;;;;;;;22350908;26;20007;-50
2024/04/15 19:14:57;;;;;;;42.42;8.85;;;;;;;;;;22314402;26;20086;-50
2024/04/15 19:24:58;;;;;;;47.28;10.55;;;;;;;;;;22342089;26;20032;-50
2024/04/15 19:35:00;;;;;;;36.05;9.02;;;;;;;;;;22353549;26;20000;-50
2024/04/15 19:45:01;;;;;;;35.60;9.45;;;;;;;;;;22350510;26;20004;-46
2024/04/15 19:55:04;;;;;;;44.28;7.90;;;;;;;;;;22359342;26;20003;-46
2024/04/15 20:05:07;;;;;;;46.08;10.75;;;;;;;;;;22361661;26;20077;-46
2024/04/15 20:15:11;;;;;;;44.97;9.63;;;;;;;;;;22343376;26;20000;-47
2024/04/15 20:25:12;;;;;;;40.58;10.80;;;;;;;;;;22330136;26;20081;-45
2024/04/15 20:35:14;;;;;;;11.70;4.65;;;;;;;;;;22348608;26;20541;-44
2024/04/15 20:45:15;;;;;;;14.10;4.18;;;;;;;;;;22333554;26;19999;-44
2024/04/15 20:55:18;;;;;;;16.65;4.15;;;;;;;;;;22370446;26;20377;-44
2024/04/15 21:05:20;;;;;;;21.67;5.75;;;;;;;;;;22335967;26;20008;-46
2024/04/15 21:15:22;;;;;;;26.17;4.50;;;;;;;;;;22359989;26;19999;-44
2024/04/15 21:25:25;;;;;;;23.70;5.93;;;;;;;;;;22364990;26;20000;-44
2024/04/15 21:35:27;;;;;;;27.73;5.50;;;;;;;;;;22340899;26;20010;-44
2024/04/15 21:45:29;;;;;;;35.88;5.45;;;;;;;;;;22362768;26;20022;-44
2024/04/15 21:55:31;;;;;;;24.50;6.32;;;;;;;;;;22365806;26;20039;-45
2024/04/15 22:05:34;;;;;;;;;;;;;;;;;;22360652;26;20001;-45
2024/04/15 22:15:36;;;;;;;27.17;5.88;;;;;;;;;;22338605;26;20269;-44
2024/04/15 22:25:38;;;;;;;26.30;5.38;;;;;;;;;;22358534;26;20434;-44
2024/04/15 22:35:39;;;;;;;28.63;6.50;;;;;;;;;;22350217;26;20032;-44
2024/04/15 22:45:42;;;;;;;28.13;5.63;;;;;;;;;;22350017;26;20018;-46
2024/04/15 22:55:44;;;;;;;30.35;5.32;;;;;;;;;;22355525;26;20011;-44
2024/04/15 23:05:46;;;;;;;22.63;4.65;;;;;;;;;;22349565;26;20000;-45
2024/04/15 23:15:47;;;;;;;17.92;4.15;;;;;;;;;;22362067;26;20004;-45
2024/04/15 23:25:49;;;;;;;27.75;4.30;;;;;;;;;;22365829;26;20035;-45
2024/04/15 23:35:50;;;;;;;18.48;4.22;;;;;;;;;;22348492;26;20134;-46
2024/04/15 23:45:55;;;;;;;21.15;3.90;;;;;;;;;;22349984;26;20141;-46
2024/04/15 23:56:28;;;;;;;21.83;4.32;;;;;;;;;;22352853;26;20003;-45
